createdAt,value
2018-12-18T00:01:17.033Z,2.37
2018-12-18T00:03:45.294Z,3.02
2018-12-18T00:06:13.548Z,2.57
2018-12-18T00:08:41.725Z,2.72
2018-12-18T00:11:10.895Z,3.00
2018-12-18T00:13:39.203Z,2.60
2018-12-18T00:16:07.437Z,2.90
2018-12-18T00:18:35.660Z,2.75
2018-12-18T00:21:03.908Z,2.62
2018-12-18T00:23:32.090Z,2.60
2018-12-18T00:26:00.293Z,2.80
2018-12-18T00:28:28.489Z,3.35
2018-12-18T00:30:56.669Z,3.05
2018-12-18T00:33:24.863Z,2.80
2018-12-18T00:35:53.082Z,2.87
2018-12-18T00:38:21.253Z,2.77
2018-12-18T00:40:49.431Z,2.70
2018-12-18T00:43:17.660Z,2.70
2018-12-18T00:45:46.229Z,2.52
2018-12-18T00:48:14.540Z,2.50
2018-12-18T00:50:42.698Z,2.90
2018-12-18T00:53:10.956Z,2.60
2018-12-18T00:55:39.161Z,2.72
2018-12-18T00:58:07.334Z,2.30
2018-12-18T01:00:35.502Z,2.80
2018-12-18T01:03:04.122Z,2.50
2018-12-18T01:05:32.377Z,2.80
2018-12-18T01:08:00.587Z,2.92
2018-12-18T01:10:28.794Z,2.87
2018-12-18T01:12:57.034Z,3.08
2018-12-18T01:15:25.246Z,3.70
2018-12-18T01:17:53.476Z,3.00
2018-12-18T01:20:21.762Z,3.33
2018-12-18T01:22:49.936Z,3.30
2018-12-18T01:25:18.159Z,3.10
2018-12-18T01:27:46.378Z,3.10
2018-12-18T01:30:14.569Z,3.17
2018-12-18T01:32:42.766Z,3.52
2018-12-18T01:35:10.950Z,2.90
2018-12-18T01:37:39.169Z,2.92
2018-12-18T01:40:07.512Z,3.00
2018-12-18T01:42:35.717Z,2.98
2018-12-18T01:45:03.976Z,3.10
2018-12-18T01:47:32.184Z,2.55
2018-12-18T01:50:00.422Z,3.40
2018-12-18T01:52:28.573Z,2.87
2018-12-18T01:54:56.761Z,3.20
2018-12-18T01:57:24.965Z,2.72
2018-12-18T01:59:53.180Z,3.42
2018-12-18T02:02:21.593Z,2.90
2018-12-18T02:04:49.819Z,2.85
2018-12-18T02:07:17.971Z,3.00
2018-12-18T02:09:46.190Z,3.47
2018-12-18T02:12:14.382Z,2.83
2018-12-18T02:14:42.610Z,2.98
2018-12-18T02:17:10.801Z,3.33
2018-12-18T02:19:39.109Z,2.85
2018-12-18T02:22:07.307Z,3.73
2018-12-18T02:24:35.452Z,3.12
2018-12-18T02:27:03.749Z,3.10
2018-12-18T02:29:32.385Z,3.60
2018-12-18T02:32:00.546Z,3.30
2018-12-18T02:34:28.762Z,3.37
2018-12-18T02:36:57.007Z,3.00
2018-12-18T02:39:25.179Z,3.10
2018-12-18T02:41:53.430Z,3.10
2018-12-18T02:44:21.653Z,2.87
2018-12-18T02:46:49.834Z,2.55
2018-12-18T02:49:18.050Z,2.67
2018-12-18T02:51:46.285Z,2.37
2018-12-18T02:54:14.462Z,2.60
2018-12-18T02:56:42.630Z,2.63
2018-12-18T02:59:10.970Z,2.42
2018-12-18T03:01:39.204Z,2.50
2018-12-18T03:04:07.359Z,2.45
2018-12-18T03:06:35.648Z,2.13
2018-12-18T03:09:06.609Z,2.20
2018-12-18T03:11:34.819Z,2.60
2018-12-18T03:14:03.377Z,2.47
2018-12-18T03:16:31.935Z,2.33
2018-12-18T03:19:00.277Z,2.22
2018-12-18T03:21:28.452Z,2.20
2018-12-18T03:23:56.621Z,2.40
2018-12-18T03:26:24.894Z,2.72
2018-12-18T03:28:53.259Z,2.55
2018-12-18T03:31:21.830Z,2.30
2018-12-18T03:33:50.117Z,2.45
2018-12-18T03:36:18.333Z,2.67
2018-12-18T03:38:46.507Z,2.52
2018-12-18T03:41:14.807Z,3.23
2018-12-18T03:43:43.070Z,2.60
2018-12-18T03:46:11.289Z,2.57
2018-12-18T03:48:39.523Z,2.83
2018-12-18T03:51:07.661Z,2.60
2018-12-18T03:53:35.856Z,2.60
2018-12-18T03:56:04.213Z,2.77
2018-12-18T03:58:32.458Z,3.00
2018-12-18T04:01:00.621Z,2.90
2018-12-18T04:03:28.903Z,3.15
2018-12-18T04:05:57.106Z,3.13
2018-12-18T04:08:25.309Z,2.87
2018-12-18T04:10:53.518Z,3.00
2018-12-18T04:13:21.733Z,2.62
2018-12-18T04:15:49.893Z,3.17
2018-12-18T04:18:18.107Z,2.83
2018-12-18T04:20:53.123Z,2.70
2018-12-18T04:23:21.340Z,2.95
2018-12-18T04:25:49.509Z,3.17
2018-12-18T04:28:17.724Z,3.50
2018-12-18T04:30:45.918Z,3.55
2018-12-18T04:33:14.156Z,3.10
2018-12-18T04:35:42.448Z,3.47
2018-12-18T04:38:10.701Z,3.83
2018-12-18T04:40:38.885Z,3.30
2018-12-18T04:43:07.089Z,3.00
2018-12-18T04:45:35.242Z,3.50
2018-12-18T04:48:03.426Z,3.40
2018-12-18T04:50:31.644Z,3.27
2018-12-18T04:52:59.868Z,3.70
2018-12-18T04:55:28.045Z,3.77
2018-12-18T04:57:56.490Z,3.35
2018-12-18T05:00:24.711Z,2.90
2018-12-18T05:02:52.904Z,3.12
2018-12-18T05:05:21.179Z,2.87
2018-12-18T05:07:49.348Z,3.33
2018-12-18T05:10:17.569Z,3.20
2018-12-18T05:12:45.801Z,3.33
2018-12-18T05:15:14.019Z,3.45
2018-12-18T05:17:42.298Z,2.62
2018-12-18T05:20:10.529Z,2.90
2018-12-18T05:22:38.750Z,3.12
2018-12-18T05:25:07.527Z,2.62
2018-12-18T05:27:35.808Z,3.60
2018-12-18T05:30:04.562Z,2.55
2018-12-18T05:32:32.774Z,3.22
2018-12-18T05:35:01.018Z,2.70
2018-12-18T05:37:29.205Z,3.10
2018-12-18T05:39:57.394Z,3.17
2018-12-18T05:42:25.545Z,2.97
2018-12-18T05:44:53.743Z,3.00
2018-12-18T05:47:21.941Z,2.93
2018-12-18T05:49:50.166Z,2.85
2018-12-18T05:52:18.332Z,2.80
2018-12-18T05:54:46.525Z,2.62
2018-12-18T05:57:14.782Z,2.97
2018-12-18T05:59:42.995Z,2.33
2018-12-18T06:02:11.188Z,2.72
2018-12-18T06:04:39.425Z,2.70
2018-12-18T06:07:07.593Z,2.67
2018-12-18T06:09:35.848Z,2.40
2018-12-18T06:12:04.141Z,2.22
2018-12-18T06:14:32.316Z,2.20
2018-12-18T06:17:00.562Z,2.13
2018-12-18T06:19:28.787Z,2.92
2018-12-18T06:21:57.083Z,2.50
2018-12-18T06:24:25.420Z,2.67
2018-12-18T06:26:53.622Z,2.58
2018-12-18T06:29:23.127Z,2.95
2018-12-18T06:31:51.366Z,2.35
2018-12-18T06:34:19.585Z,1.90
2018-12-18T06:36:47.809Z,2.70
2018-12-18T06:39:16.078Z,2.40
2018-12-18T06:41:44.229Z,2.77
2018-12-18T06:44:12.429Z,2.40
2018-12-18T06:46:40.678Z,2.13
2018-12-18T06:49:08.852Z,2.55
2018-12-18T06:51:37.048Z,2.60
2018-12-18T06:54:05.259Z,3.15
2018-12-18T06:56:34.208Z,2.13
2018-12-18T06:59:02.478Z,2.47
2018-12-18T07:01:30.678Z,2.70
2018-12-18T07:03:58.885Z,2.80
2018-12-18T07:06:27.243Z,2.62
2018-12-18T07:08:55.429Z,2.30
2018-12-18T07:11:23.704Z,2.40
2018-12-18T07:13:51.898Z,2.60
2018-12-18T07:16:20.089Z,2.90
2018-12-18T07:18:48.315Z,2.70
2018-12-18T07:21:16.558Z,2.50
2018-12-18T07:23:44.775Z,2.50
2018-12-18T07:26:12.977Z,2.07
2018-12-18T07:28:41.363Z,2.45
2018-12-18T07:31:09.657Z,2.37
2018-12-18T07:33:37.845Z,2.30
2018-12-18T07:36:06.051Z,2.60
2018-12-18T07:38:34.260Z,2.50
2018-12-18T07:41:02.434Z,2.07
2018-12-18T07:43:30.651Z,1.92
2018-12-18T07:45:58.846Z,2.40
2018-12-18T07:48:27.019Z,1.82
2018-12-18T07:50:55.239Z,1.77
2018-12-18T07:53:23.524Z,1.90
2018-12-18T07:55:52.490Z,2.17
2018-12-18T07:58:20.669Z,2.10
2018-12-18T08:00:48.898Z,2.10
2018-12-18T08:03:17.100Z,2.10
2018-12-18T08:05:45.307Z,2.33
2018-12-18T08:08:13.473Z,2.50
2018-12-18T08:10:41.678Z,2.53
2018-12-18T08:13:09.883Z,2.33
2018-12-18T08:15:38.074Z,2.50
2018-12-18T08:18:06.315Z,2.30
2018-12-18T08:20:34.544Z,1.87
2018-12-18T08:23:02.782Z,1.80
2018-12-18T08:25:30.981Z,2.25
2018-12-18T08:27:59.216Z,1.82
2018-12-18T08:30:27.542Z,2.10
2018-12-18T08:32:55.746Z,1.67
2018-12-18T08:35:23.950Z,1.70
2018-12-18T08:37:52.113Z,1.55
2018-12-18T08:40:20.269Z,1.80
2018-12-18T08:42:48.555Z,1.90
2018-12-18T08:45:16.814Z,1.47
2018-12-18T08:47:45.029Z,1.60
2018-12-18T08:50:13.448Z,1.62
2018-12-18T08:52:41.604Z,1.55
2018-12-18T08:55:09.841Z,1.80
2018-12-18T08:57:38.056Z,1.62
2018-12-18T09:00:08.177Z,1.67
2018-12-18T09:02:36.382Z,2.10
2018-12-18T09:05:05.252Z,2.10
2018-12-18T09:07:33.451Z,1.80
2018-12-18T09:10:01.644Z,1.72
2018-12-18T09:12:29.873Z,1.17
2018-12-18T09:14:58.650Z,1.80
2018-12-18T09:17:32.400Z,1.30
2018-12-18T09:20:00.645Z,1.55
2018-12-18T09:22:28.844Z,1.47
2018-12-18T09:24:57.090Z,1.80
2018-12-18T09:27:25.285Z,1.97
2018-12-18T09:29:53.434Z,1.90
2018-12-18T09:32:28.350Z,1.60
2018-12-18T09:34:56.568Z,1.27
2018-12-18T09:37:24.799Z,1.70
2018-12-18T09:39:53.036Z,2.00
2018-12-18T09:42:26.684Z,1.97
2018-12-18T09:44:54.958Z,1.90
2018-12-18T09:47:23.182Z,1.73
2018-12-18T09:49:51.350Z,1.90
2018-12-18T09:52:19.620Z,1.60
2018-12-18T09:54:47.817Z,1.57
2018-12-18T09:57:21.535Z,1.30
2018-12-18T09:59:50.116Z,1.40
2018-12-18T10:02:18.333Z,2.10
2018-12-18T10:04:46.564Z,1.27
2018-12-18T10:07:14.784Z,1.87
2018-12-18T10:09:43.072Z,1.70
2018-12-18T10:12:11.286Z,2.17
2018-12-18T10:14:39.476Z,1.82
2018-12-18T10:17:07.657Z,1.53
2018-12-18T10:19:36.007Z,1.42
2018-12-18T10:22:04.200Z,1.50
2018-12-18T10:24:32.391Z,1.50
2018-12-18T10:27:00.713Z,1.27
2018-12-18T10:29:30.215Z,1.77
2018-12-18T10:31:58.389Z,1.33
2018-12-18T10:34:26.598Z,1.70
2018-12-18T10:36:54.752Z,1.50
2018-12-18T10:39:22.906Z,1.10
2018-12-18T10:41:51.162Z,1.83
2018-12-18T10:44:19.448Z,2.05
2018-12-18T10:46:47.592Z,1.50
2018-12-18T10:49:15.794Z,1.32
2018-12-18T10:51:44.026Z,1.00
2018-12-18T10:54:12.237Z,1.55
2018-12-18T10:56:40.449Z,1.37
2018-12-18T10:59:08.751Z,1.40
2018-12-18T11:01:42.550Z,1.17
2018-12-18T11:04:10.754Z,1.42
2018-12-18T11:06:38.951Z,1.93
2018-12-18T11:09:09.291Z,1.30
2018-12-18T11:11:37.909Z,1.63
2018-12-18T11:14:06.462Z,2.25
2018-12-18T11:16:37.443Z,1.10
2018-12-18T11:19:05.324Z,1.25
2018-12-18T11:21:33.534Z,1.60
2018-12-18T11:24:01.691Z,1.70
2018-12-18T11:26:30.039Z,1.85
2018-12-18T11:28:58.313Z,1.82
2018-12-18T11:31:26.518Z,1.80
2018-12-18T11:33:54.903Z,1.40
2018-12-18T11:36:23.098Z,1.50
2018-12-18T11:38:51.334Z,1.72
2018-12-18T11:41:19.546Z,1.83
2018-12-18T11:43:47.707Z,1.35
2018-12-18T11:46:15.935Z,2.05
2018-12-18T11:48:44.128Z,2.47
2018-12-18T11:51:12.430Z,2.00
2018-12-18T11:53:40.675Z,2.05
2018-12-18T11:56:09.770Z,2.20
2018-12-18T11:58:38.050Z,1.90
2018-12-18T12:01:06.202Z,1.80
2018-12-18T12:03:34.414Z,2.75
2018-12-18T12:06:02.657Z,2.43
2018-12-18T12:08:30.884Z,1.75
2018-12-18T12:10:59.166Z,1.90
2018-12-18T12:13:27.710Z,1.80
2018-12-18T12:15:55.890Z,1.93
2018-12-18T12:18:24.134Z,2.12
2018-12-18T12:20:52.346Z,2.10
2018-12-18T12:23:20.532Z,2.40
2018-12-18T12:25:48.794Z,1.50
2018-12-18T12:28:16.986Z,1.98
2018-12-18T12:30:45.173Z,1.70
2018-12-18T12:33:13.355Z,2.62
2018-12-18T12:35:41.558Z,2.30
2018-12-18T12:38:09.849Z,2.33
2018-12-18T12:40:38.078Z,2.13
2018-12-18T12:43:06.382Z,1.57
2018-12-18T12:45:34.826Z,2.63
2018-12-18T12:48:07.280Z,2.33
2018-12-18T12:50:35.480Z,2.13
2018-12-18T12:53:03.747Z,2.67
2018-12-18T12:55:32.031Z,2.97
2018-12-18T12:58:00.246Z,2.30
2018-12-18T13:00:28.457Z,2.30
2018-12-18T13:02:56.714Z,2.50
2018-12-18T13:05:24.916Z,2.35
2018-12-18T13:07:53.169Z,2.77
2018-12-18T13:10:21.343Z,2.08
2018-12-18T13:12:49.587Z,2.70
2018-12-18T13:15:17.766Z,2.50
2018-12-18T13:17:45.950Z,2.40
2018-12-18T13:25:10.230Z,2.08
2018-12-18T13:27:38.467Z,2.40
2018-12-18T13:30:07.129Z,2.30
2018-12-18T13:32:35.264Z,2.95
2018-12-18T13:35:03.797Z,2.25
2018-12-18T13:37:32.061Z,2.72
2018-12-18T13:40:00.383Z,2.30
2018-12-18T13:42:28.820Z,2.40
2018-12-18T13:44:57.046Z,2.42
2018-12-18T13:47:27.336Z,2.27
2018-12-18T13:49:55.577Z,2.08
2018-12-18T13:52:23.786Z,2.10
2018-12-18T13:54:51.963Z,2.27
2018-12-18T13:57:20.156Z,2.13
2018-12-18T13:59:48.434Z,2.12
2018-12-18T14:02:16.631Z,2.17
2018-12-18T14:04:44.852Z,1.87
2018-12-18T14:07:13.150Z,2.07
2018-12-18T14:12:40.807Z,2.10
2018-12-18T14:15:09.269Z,1.90
2018-12-18T14:17:37.534Z,2.17
2018-12-18T14:20:06.897Z,2.02
2018-12-18T14:22:35.070Z,1.98
2018-12-18T14:25:03.230Z,1.80
2018-12-18T14:27:31.418Z,1.80
2018-12-18T14:29:59.654Z,1.72
2018-12-18T14:32:27.867Z,1.73
2018-12-18T14:34:56.122Z,1.62
2018-12-18T14:37:24.349Z,1.60
2018-12-18T14:39:52.689Z,1.40
2018-12-18T14:42:20.932Z,1.30
2018-12-18T14:44:49.181Z,1.50
2018-12-18T14:47:17.472Z,1.50
2018-12-18T14:49:45.708Z,1.70
2018-12-18T14:52:13.863Z,1.42
2018-12-18T14:54:42.105Z,1.42
2018-12-18T14:57:10.322Z,1.60
2018-12-18T14:59:38.829Z,1.82
2018-12-18T15:02:07.014Z,1.63
2018-12-18T15:04:35.201Z,1.45
2018-12-18T15:07:03.491Z,1.50
2018-12-18T15:09:31.747Z,1.22
2018-12-18T15:12:00.045Z,1.30
2018-12-18T15:14:28.225Z,1.87
2018-12-18T15:16:56.462Z,1.47
2018-12-18T15:19:24.688Z,1.70
2018-12-18T15:21:52.922Z,1.77
2018-12-18T15:24:21.105Z,1.80
2018-12-18T15:26:49.400Z,1.90
2018-12-18T15:29:18.589Z,1.75
2018-12-18T15:31:46.794Z,1.60
2018-12-18T15:34:14.963Z,1.75
2018-12-18T15:36:43.155Z,2.17
2018-12-18T15:39:11.338Z,1.98
2018-12-18T15:41:39.513Z,1.80
2018-12-18T15:44:07.730Z,1.80
2018-12-18T15:46:35.915Z,1.53
2018-12-18T15:49:04.196Z,1.55
2018-12-18T15:51:32.369Z,1.40
2018-12-18T15:54:00.538Z,1.67
2018-12-18T15:56:28.698Z,1.83
2018-12-18T15:58:56.940Z,2.00
2018-12-18T16:01:25.185Z,1.80
2018-12-18T16:03:53.429Z,1.80
2018-12-18T16:06:21.705Z,2.07
2018-12-18T16:08:49.930Z,2.47
2018-12-18T16:11:18.143Z,2.00
2018-12-18T16:13:46.336Z,2.22
2018-12-18T16:16:14.850Z,2.37
2018-12-18T16:18:43.133Z,2.35
2018-12-18T16:21:11.351Z,1.80
2018-12-18T16:23:39.591Z,2.12
2018-12-18T16:26:07.778Z,2.05
2018-12-18T16:28:35.989Z,1.77
2018-12-18T16:31:04.424Z,2.10
2018-12-18T16:33:32.630Z,1.60
2018-12-18T16:36:00.851Z,1.87
2018-12-18T16:38:29.041Z,2.00
2018-12-18T16:40:57.261Z,2.33
2018-12-18T16:43:25.430Z,2.37
2018-12-18T16:45:53.601Z,2.60
2018-12-18T16:48:21.764Z,3.50
2018-12-18T16:50:49.994Z,2.60
2018-12-18T16:53:18.274Z,3.45
2018-12-18T16:55:46.538Z,3.17
2018-12-18T16:58:14.758Z,3.58
2018-12-18T17:00:43.049Z,3.95
2018-12-18T17:03:11.243Z,4.15
2018-12-18T17:05:39.431Z,4.27
2018-12-18T17:08:07.604Z,4.50
2018-12-18T17:10:35.845Z,4.65
2018-12-18T17:13:04.137Z,4.75
2018-12-18T17:15:32.328Z,4.43
2018-12-18T17:18:00.559Z,4.80
2018-12-18T17:20:28.802Z,4.78
2018-12-18T17:22:57.020Z,5.33
2018-12-18T17:25:25.230Z,5.28
2018-12-18T17:27:53.446Z,4.22
2018-12-18T17:30:21.691Z,5.20
2018-12-18T17:32:49.982Z,4.90
2018-12-18T17:35:18.316Z,4.62
2018-12-18T17:37:46.489Z,5.10
2018-12-18T17:40:14.679Z,4.47
2018-12-18T17:42:42.907Z,4.60
2018-12-18T17:45:11.103Z,4.53
2018-12-18T17:47:39.301Z,4.03
2018-12-18T17:50:08.205Z,5.30
2018-12-18T17:52:36.419Z,7.33
2018-12-18T17:55:04.871Z,4.80
2018-12-18T17:57:33.086Z,5.25
2018-12-18T18:00:01.269Z,5.28
2018-12-18T18:02:29.451Z,4.60
2018-12-18T18:04:57.677Z,4.83
2018-12-18T18:07:25.890Z,5.23
2018-12-18T18:09:54.175Z,5.05
2018-12-18T18:12:22.556Z,5.70
2018-12-18T18:14:50.710Z,5.90
2018-12-18T18:17:18.974Z,4.30
2018-12-18T18:19:47.166Z,4.40
2018-12-18T18:22:15.463Z,5.53
2018-12-18T18:24:43.761Z,5.47
2018-12-18T18:27:12.051Z,4.83
2018-12-18T18:29:40.613Z,5.47
2018-12-18T18:32:08.835Z,4.73
2018-12-18T18:34:37.010Z,5.00
2018-12-18T18:37:05.286Z,5.13
2018-12-18T18:39:33.615Z,5.10
2018-12-18T18:42:01.789Z,5.10
2018-12-18T18:44:29.985Z,4.45
2018-12-18T18:46:58.126Z,4.73
2018-12-18T18:49:26.367Z,4.87
2018-12-18T18:51:54.540Z,4.30
2018-12-18T18:54:22.879Z,4.53
2018-12-18T18:56:51.128Z,4.50
2018-12-18T18:59:20.550Z,4.65
2018-12-18T19:01:48.786Z,4.33
2018-12-18T19:04:16.977Z,4.70
2018-12-18T19:06:45.513Z,4.60
2018-12-18T19:09:13.753Z,4.97
2018-12-18T19:11:41.960Z,4.90
2018-12-18T19:14:10.150Z,3.85
2018-12-18T19:16:38.376Z,4.50
2018-12-18T19:19:06.590Z,4.10
2018-12-18T19:21:34.798Z,3.47
2018-12-18T19:24:02.998Z,4.33
2018-12-18T19:26:31.305Z,4.50
2018-12-18T19:28:59.518Z,4.35
2018-12-18T19:31:27.774Z,4.35
2018-12-18T19:33:55.983Z,3.83
2018-12-18T19:36:24.464Z,3.77
2018-12-18T19:38:52.666Z,3.77
2018-12-18T19:41:20.890Z,5.47
2018-12-18T19:43:49.091Z,3.80
2018-12-18T19:46:17.261Z,3.67
2018-12-18T19:48:45.582Z,4.15
2018-12-18T19:51:15.156Z,3.30
2018-12-18T19:53:43.387Z,3.47
2018-12-18T19:56:11.617Z,3.17
2018-12-18T19:58:39.847Z,3.30
2018-12-18T20:01:08.093Z,2.73
2018-12-18T20:03:36.305Z,3.87
2018-12-18T20:06:04.561Z,3.40
2018-12-18T20:08:32.822Z,3.58
2018-12-18T20:11:01.002Z,3.73
2018-12-18T20:13:29.232Z,3.22
2018-12-18T20:15:57.403Z,3.25
2018-12-18T20:18:25.577Z,3.15
2018-12-18T20:20:53.775Z,2.87
2018-12-18T20:23:21.985Z,2.75
2018-12-18T20:25:50.553Z,3.07
2018-12-18T20:28:18.820Z,3.08
2018-12-18T20:30:47.118Z,2.90
2018-12-18T20:33:15.274Z,3.00
2018-12-18T20:35:43.460Z,3.60
2018-12-18T20:38:16.857Z,3.75
2018-12-18T20:40:41.912Z,2.87
2018-12-18T20:43:10.110Z,3.50
2018-12-18T20:45:38.287Z,3.00
2018-12-18T20:48:06.503Z,2.58
2018-12-18T20:50:34.677Z,3.10
2018-12-18T20:53:02.906Z,3.33
2018-12-18T20:55:31.123Z,3.40
2018-12-18T20:57:59.290Z,3.37
2018-12-18T21:00:27.540Z,3.33
2018-12-18T21:02:55.713Z,3.12
2018-12-18T21:05:24.041Z,3.40
2018-12-18T21:07:52.297Z,3.27
2018-12-18T21:10:20.535Z,3.37
2018-12-18T21:12:48.716Z,3.90
2018-12-18T21:15:16.984Z,2.65
2018-12-18T21:17:45.222Z,3.33
2018-12-18T21:20:13.467Z,2.47
2018-12-18T21:22:41.678Z,3.30
2018-12-18T21:25:09.851Z,3.37
2018-12-18T21:27:38.143Z,3.72
2018-12-18T21:30:08.490Z,3.85
2018-12-18T21:32:36.706Z,3.55
2018-12-18T21:35:05.298Z,3.33
2018-12-18T21:37:33.493Z,3.15
2018-12-18T21:40:01.656Z,3.77
2018-12-18T21:42:29.859Z,3.63
2018-12-18T21:44:58.338Z,3.75
2018-12-18T21:47:26.584Z,3.07
2018-12-18T21:49:54.753Z,3.30
2018-12-18T21:52:23.000Z,3.50
2018-12-18T21:54:51.226Z,3.80
2018-12-18T21:57:19.386Z,3.55
2018-12-18T21:59:47.661Z,3.45
2018-12-18T22:02:15.837Z,3.83
2018-12-18T22:04:43.969Z,3.45
2018-12-18T22:07:12.290Z,3.22
2018-12-18T22:09:40.498Z,3.45
2018-12-18T22:12:08.691Z,3.47
2018-12-18T22:14:36.953Z,3.33
2018-12-18T22:17:05.129Z,2.90
2018-12-18T22:19:33.363Z,3.17
2018-12-18T22:22:01.552Z,3.47
2018-12-18T22:24:29.750Z,3.08
2018-12-18T22:26:57.987Z,3.57
2018-12-18T22:29:27.288Z,3.70
2018-12-18T22:31:55.530Z,3.03
2018-12-18T22:34:23.737Z,3.20
2018-12-18T22:36:51.982Z,2.70
2018-12-18T22:39:20.153Z,3.27
2018-12-18T22:41:48.337Z,3.03
2018-12-18T22:44:16.546Z,2.80
2018-12-18T22:46:44.861Z,2.83
2018-12-18T22:49:13.051Z,3.30
2018-12-18T22:51:41.239Z,2.87
2018-12-18T22:54:09.439Z,3.02
2018-12-18T22:56:37.718Z,2.77
2018-12-18T22:59:05.916Z,2.42
2018-12-18T23:01:38.104Z,2.60
2018-12-18T23:04:06.433Z,2.65
2018-12-18T23:06:34.633Z,2.70
2018-12-18T23:09:04.102Z,2.10
2018-12-18T23:11:32.423Z,2.10
2018-12-18T23:14:00.647Z,2.42
2018-12-18T23:16:28.942Z,2.40
2018-12-18T23:18:57.121Z,2.70
2018-12-18T23:21:25.350Z,2.40
2018-12-18T23:23:53.586Z,2.40
2018-12-18T23:26:21.779Z,2.37
2018-12-18T23:28:49.985Z,3.02
2018-12-18T23:31:18.126Z,2.58
2018-12-18T23:33:46.346Z,2.83
2018-12-18T23:36:14.644Z,2.97
2018-12-18T23:38:42.996Z,2.75
2018-12-18T23:41:11.319Z,2.77
2018-12-18T23:43:39.586Z,2.80
2018-12-18T23:46:07.780Z,2.55
2018-12-18T23:48:39.706Z,2.98
2018-12-18T23:51:06.488Z,3.12
2018-12-18T23:53:34.727Z,2.85
2018-12-18T23:56:02.987Z,2.73
2018-12-18T23:58:31.157Z,3.05
